createdAt,value
2022-07-25T00:02:00.890Z,65.50
2022-07-25T00:04:29.766Z,65.64
2022-07-25T00:06:57.527Z,65.68
2022-07-25T00:09:25.214Z,65.50
2022-07-25T00:11:54.149Z,64.61
2022-07-25T00:14:21.787Z,65.18
2022-07-25T00:16:49.426Z,65.30
2022-07-25T00:19:17.172Z,65.12
2022-07-25T00:21:44.837Z,65.23
2022-07-25T00:24:12.653Z,65.10
2022-07-25T00:26:40.777Z,65.44
2022-07-25T00:29:09.925Z,66.49
2022-07-25T00:31:38.781Z,66.98
2022-07-25T00:34:06.849Z,66.61
2022-07-25T00:36:34.933Z,66.73
2022-07-25T00:39:02.545Z,66.31
2022-07-25T00:41:30.100Z,66.46
2022-07-25T00:43:57.710Z,66.32
2022-07-25T00:46:26.690Z,66.74
2022-07-25T00:48:54.937Z,66.88
2022-07-25T00:51:23.681Z,67.24
2022-07-25T00:53:51.313Z,67.47
2022-07-25T00:56:18.926Z,66.78
2022-07-25T00:58:46.689Z,67.45
2022-07-25T01:01:14.472Z,67.20
2022-07-25T01:03:43.509Z,67.72
2022-07-25T01:06:11.161Z,67.12
2022-07-25T01:08:39.851Z,67.47
2022-07-25T01:11:08.111Z,67.46
2022-07-25T01:13:35.880Z,68.09
2022-07-25T01:16:04.011Z,68.43
2022-07-25T01:18:31.990Z,68.69
2022-07-25T01:21:01.404Z,69.03
2022-07-25T01:23:29.053Z,68.92
2022-07-25T01:25:56.847Z,68.78
2022-07-25T01:28:24.501Z,68.80
2022-07-25T01:30:52.339Z,68.72
2022-07-25T01:33:22.070Z,68.73
2022-07-25T01:35:51.032Z,68.44
2022-07-25T01:38:20.165Z,68.02
2022-07-25T01:40:47.784Z,68.65
2022-07-25T01:43:15.412Z,68.25
2022-07-25T01:45:43.059Z,68.28
2022-07-25T01:48:10.973Z,68.11
2022-07-25T01:50:38.639Z,67.91
2022-07-25T01:53:06.599Z,67.79
2022-07-25T01:55:35.750Z,68.01
2022-07-25T01:58:04.577Z,68.17
2022-07-25T02:00:34.428Z,68.53
2022-07-25T02:03:19.805Z,69.25
2022-07-25T02:05:47.494Z,68.76
2022-07-25T02:08:15.121Z,69.08
2022-07-25T02:10:44.236Z,69.26
2022-07-25T02:13:11.942Z,69.44
2022-07-25T02:15:39.766Z,70.12
2022-07-25T02:18:07.480Z,69.83
2022-07-25T02:20:35.303Z,70.31
2022-07-25T02:23:03.792Z,70.25
2022-07-25T02:25:31.840Z,69.53
2022-07-25T02:28:01.401Z,69.91
2022-07-25T02:30:29.210Z,69.64
2022-07-25T02:32:56.922Z,69.26
2022-07-25T02:35:24.634Z,70.00
2022-07-25T02:37:52.349Z,69.93
2022-07-25T02:40:19.981Z,70.05
2022-07-25T02:42:47.670Z,70.16
2022-07-25T02:45:16.771Z,69.71
2022-07-25T02:47:44.481Z,69.89
2022-07-25T02:50:14.967Z,69.58
2022-07-25T02:52:42.862Z,69.61
2022-07-25T02:55:11.931Z,69.88
2022-07-25T02:57:39.661Z,71.07
2022-07-25T03:00:08.831Z,71.54
2022-07-25T03:02:37.961Z,72.18
2022-07-25T03:05:08.227Z,72.63
2022-07-25T03:07:36.081Z,72.79
2022-07-25T03:10:03.955Z,72.47
2022-07-25T03:12:39.584Z,72.37
2022-07-25T03:15:08.489Z,71.97
2022-07-25T03:17:36.227Z,71.49
2022-07-25T03:20:05.945Z,71.84
2022-07-25T03:22:33.855Z,72.30
2022-07-25T03:25:01.749Z,73.21
2022-07-25T03:27:29.605Z,72.98
2022-07-25T03:29:58.205Z,72.64
2022-07-25T03:32:25.793Z,72.19
2022-07-25T03:34:53.508Z,72.47
2022-07-25T03:37:23.806Z,72.16
2022-07-25T03:39:51.387Z,72.35
2022-07-25T03:42:22.396Z,72.27
2022-07-25T03:44:52.864Z,72.74
2022-07-25T03:47:21.009Z,72.25
2022-07-25T03:49:48.722Z,72.96
2022-07-25T03:52:16.365Z,73.59
2022-07-25T03:54:45.294Z,74.66
2022-07-25T03:57:12.930Z,74.95
2022-07-25T03:59:40.581Z,74.38
2022-07-25T04:02:08.258Z,73.74
2022-07-25T04:04:36.019Z,73.23
2022-07-25T04:07:03.840Z,72.89
2022-07-25T04:09:33.735Z,72.65
2022-07-25T04:12:04.231Z,71.94
2022-07-25T04:14:32.089Z,71.25
2022-07-25T04:16:59.864Z,72.88
2022-07-25T04:19:28.277Z,72.78
2022-07-25T04:21:56.864Z,72.62
2022-07-25T04:24:24.525Z,72.44
2022-07-25T04:26:52.165Z,73.05
2022-07-25T04:29:21.220Z,74.23
2022-07-25T04:31:49.000Z,74.05
2022-07-25T04:34:16.697Z,73.39
2022-07-25T04:36:44.325Z,73.17
2022-07-25T04:39:11.996Z,73.82
2022-07-25T04:41:39.634Z,74.83
2022-07-25T04:44:08.758Z,74.34
2022-07-25T04:46:38.170Z,75.44
2022-07-25T04:49:05.927Z,75.48
2022-07-25T04:51:35.747Z,75.98
2022-07-25T04:54:04.083Z,75.31
2022-07-25T04:56:31.971Z,75.18
2022-07-25T04:59:03.273Z,75.54
2022-07-25T05:01:34.565Z,75.90
2022-07-25T05:04:04.076Z,76.04
2022-07-25T05:06:32.021Z,75.79
2022-07-25T05:08:59.753Z,76.01
2022-07-25T05:11:27.353Z,76.16
2022-07-25T05:13:54.949Z,75.97
2022-07-25T05:16:22.607Z,75.86
2022-07-25T05:18:50.336Z,75.39
2022-07-25T05:21:19.329Z,74.34
2022-07-25T05:23:46.989Z,73.48
2022-07-25T05:26:14.640Z,72.89
2022-07-25T05:28:42.271Z,72.89
2022-07-25T05:31:09.985Z,72.81
2022-07-25T05:33:37.677Z,72.42
2022-07-25T05:36:05.965Z,72.37
2022-07-25T05:38:34.924Z,71.74
2022-07-25T05:41:02.608Z,71.45
2022-07-25T05:43:30.262Z,70.99
2022-07-25T05:46:01.561Z,70.63
2022-07-25T05:48:29.368Z,70.36
2022-07-25T05:50:59.057Z,70.07
2022-07-25T05:53:26.723Z,69.65
2022-07-25T05:55:55.739Z,69.93
2022-07-25T05:58:29.105Z,69.79
2022-07-25T06:00:57.927Z,69.67
2022-07-25T06:03:25.759Z,69.51
2022-07-25T06:05:53.559Z,69.84
2022-07-25T06:08:21.221Z,69.59
2022-07-25T06:10:50.290Z,69.17
2022-07-25T06:13:20.225Z,68.91
2022-07-25T06:15:48.609Z,69.26
2022-07-25T06:18:16.354Z,69.10
2022-07-25T06:20:44.064Z,68.83
2022-07-25T06:23:11.847Z,68.29
2022-07-25T06:25:39.517Z,67.91
2022-07-25T06:28:07.185Z,67.81
2022-07-25T06:30:39.664Z,68.02
2022-07-25T06:33:07.327Z,67.94
2022-07-25T06:35:35.022Z,67.64
2022-07-25T06:38:02.679Z,66.74
2022-07-25T06:40:30.297Z,66.14
2022-07-25T06:42:58.636Z,65.71
2022-07-25T06:45:27.321Z,66.01
2022-07-25T06:47:56.333Z,65.61
2022-07-25T06:50:23.981Z,65.16
2022-07-25T06:52:51.632Z,65.15
2022-07-25T06:55:19.714Z,65.63
2022-07-25T06:57:47.873Z,64.27
2022-07-25T07:00:16.167Z,64.18
2022-07-25T07:02:52.187Z,63.27
2022-07-25T07:05:21.946Z,62.84
2022-07-25T07:07:49.669Z,61.89
2022-07-25T07:10:17.966Z,60.95
2022-07-25T07:12:45.890Z,60.33
2022-07-25T07:15:14.095Z,59.28
2022-07-25T07:17:41.801Z,58.76
2022-07-25T07:20:10.684Z,58.19
2022-07-25T07:22:46.351Z,58.76
2022-07-25T07:25:15.863Z,55.44
2022-07-25T07:27:43.983Z,56.29
2022-07-25T07:30:14.666Z,55.29
2022-07-25T07:32:43.361Z,55.31
2022-07-25T07:35:12.145Z,54.85
2022-07-25T07:37:43.447Z,54.51
2022-07-25T07:40:16.797Z,54.06
2022-07-25T07:42:47.246Z,54.06
2022-07-25T07:45:16.759Z,53.85
2022-07-25T07:47:46.756Z,52.97
2022-07-25T07:50:14.718Z,53.01
2022-07-25T07:52:42.447Z,52.92
2022-07-25T07:55:29.775Z,53.29
2022-07-25T07:57:59.480Z,53.55
2022-07-25T08:00:30.291Z,53.24
2022-07-25T08:02:59.892Z,52.87
2022-07-25T08:05:29.570Z,48.83
2022-07-25T08:07:57.826Z,46.69
2022-07-25T08:10:28.859Z,44.87
2022-07-25T08:12:56.904Z,44.83
2022-07-25T08:15:24.530Z,44.92
2022-07-25T08:17:53.179Z,45.06
2022-07-25T08:20:37.360Z,44.94
2022-07-25T08:23:06.433Z,45.08
2022-07-25T08:25:36.106Z,45.43
2022-07-25T08:28:06.211Z,44.49
2022-07-25T08:30:34.802Z,44.53
2022-07-25T08:33:04.469Z,44.86
2022-07-25T08:35:33.257Z,43.72
2022-07-25T08:38:01.789Z,44.74
2022-07-25T08:40:31.556Z,44.23
2022-07-25T08:43:01.230Z,43.55
2022-07-25T08:45:29.827Z,43.34
2022-07-25T08:47:57.843Z,43.39
2022-07-25T08:50:28.122Z,42.84
2022-07-25T08:53:10.334Z,43.27
2022-07-25T08:55:45.617Z,41.90
2022-07-25T08:58:16.452Z,41.56
2022-07-25T09:00:44.906Z,40.44
2022-07-25T09:03:13.146Z,41.33
2022-07-25T09:05:41.150Z,40.90
2022-07-25T09:08:10.996Z,40.97
2022-07-25T09:10:40.656Z,40.79
2022-07-25T09:13:13.970Z,40.65
2022-07-25T09:15:46.402Z,40.83
2022-07-25T09:18:16.925Z,41.40
2022-07-25T09:20:46.856Z,41.54
2022-07-25T09:23:16.066Z,39.29
2022-07-25T09:25:43.704Z,40.41
2022-07-25T09:28:16.074Z,40.30
2022-07-25T09:30:55.970Z,40.08
2022-07-25T09:33:24.909Z,39.50
2022-07-25T09:35:54.025Z,38.70
2022-07-25T09:38:24.177Z,39.19
2022-07-25T09:40:56.383Z,38.26
2022-07-25T09:43:24.631Z,38.97
2022-07-25T09:45:53.188Z,40.08
2022-07-25T09:48:22.197Z,38.56
2022-07-25T09:50:51.346Z,36.22
2022-07-25T09:53:20.944Z,35.76
2022-07-25T09:55:48.537Z,37.13
2022-07-25T09:58:16.162Z,37.39
2022-07-25T10:00:44.117Z,37.05
2022-07-25T10:03:25.441Z,35.63
2022-07-25T10:06:08.853Z,36.26
2022-07-25T10:08:38.311Z,35.54
2022-07-25T10:11:06.829Z,35.50
2022-07-25T10:13:38.195Z,35.38
2022-07-25T10:16:15.977Z,35.33
2022-07-25T10:18:50.374Z,35.29
2022-07-25T10:21:28.197Z,34.69
2022-07-25T10:24:02.393Z,33.17
2022-07-25T10:26:30.659Z,32.81
2022-07-25T10:28:59.048Z,32.21
2022-07-25T10:31:35.611Z,32.25
2022-07-25T10:34:05.670Z,32.52
2022-07-25T10:36:45.127Z,31.99
2022-07-25T10:39:15.512Z,32.12
2022-07-25T10:41:53.794Z,32.54
2022-07-25T10:44:22.086Z,31.94
2022-07-25T10:46:50.216Z,32.07
2022-07-25T10:49:23.648Z,32.05
2022-07-25T10:52:00.350Z,32.53
2022-07-25T10:54:34.850Z,32.49
2022-07-25T10:57:02.876Z,32.71
2022-07-25T10:59:33.619Z,32.29
2022-07-25T11:02:01.636Z,31.85
2022-07-25T11:04:29.355Z,32.27
2022-07-25T11:06:58.973Z,31.17
2022-07-25T11:09:28.828Z,31.96
2022-07-25T11:11:58.635Z,31.04
2022-07-25T11:14:31.092Z,31.02
2022-07-25T11:16:59.222Z,31.24
2022-07-25T11:19:29.257Z,30.95
2022-07-25T11:21:59.743Z,31.54
2022-07-25T11:24:35.832Z,31.00
2022-07-25T11:27:08.376Z,31.15
2022-07-25T11:29:39.551Z,30.69
2022-07-25T11:32:10.136Z,30.71
2022-07-25T11:34:39.217Z,31.18
2022-07-25T11:37:11.821Z,30.93
2022-07-25T11:39:42.159Z,30.90
2022-07-25T11:42:11.241Z,30.68
2022-07-25T11:44:47.454Z,30.67
2022-07-25T11:47:25.449Z,30.74
2022-07-25T11:49:54.725Z,31.34
2022-07-25T11:52:26.123Z,30.81
2022-07-25T11:54:54.748Z,31.93
2022-07-25T11:57:24.018Z,31.94
2022-07-25T11:59:51.726Z,31.73
2022-07-25T12:02:24.093Z,31.09
2022-07-25T12:04:58.292Z,30.90
2022-07-25T12:07:37.681Z,30.97
2022-07-25T12:10:06.412Z,29.75
2022-07-25T12:12:43.493Z,30.43
2022-07-25T12:15:12.336Z,29.28
2022-07-25T12:17:41.449Z,29.08
2022-07-25T12:20:15.406Z,27.84
2022-07-25T12:22:45.007Z,28.05
2022-07-25T12:25:12.949Z,27.23
2022-07-25T12:27:41.285Z,28.02
2022-07-25T12:30:10.332Z,28.34
2022-07-25T12:32:38.534Z,28.23
2022-07-25T12:35:07.811Z,27.96
2022-07-25T12:37:35.605Z,28.80
2022-07-25T12:40:05.301Z,28.52
2022-07-25T12:42:32.950Z,28.09
2022-07-25T12:45:00.527Z,27.83
2022-07-25T12:47:29.385Z,27.51
2022-07-25T12:49:57.200Z,28.24
2022-07-25T12:52:24.903Z,27.86
2022-07-25T12:54:52.610Z,28.53
2022-07-25T12:57:21.627Z,28.19
2022-07-25T12:59:49.485Z,28.12
2022-07-25T13:02:17.130Z,27.00
2022-07-25T13:04:45.188Z,27.61
2022-07-25T13:07:14.063Z,27.84
2022-07-25T13:09:41.844Z,28.19
2022-07-25T13:12:13.487Z,27.96
2022-07-25T13:14:45.136Z,28.75
2022-07-25T13:17:12.945Z,29.59
2022-07-25T13:19:40.583Z,29.70
2022-07-25T13:22:08.253Z,29.72
2022-07-25T13:24:35.925Z,29.42
2022-07-25T13:27:04.223Z,29.53
2022-07-25T13:29:32.147Z,29.83
2022-07-25T13:32:01.469Z,30.05
2022-07-25T13:34:30.708Z,30.38
2022-07-25T13:36:58.352Z,30.29
2022-07-25T13:39:27.133Z,29.89
2022-07-25T13:41:54.972Z,29.74
2022-07-25T13:44:22.575Z,29.62
2022-07-25T13:46:50.403Z,30.99
2022-07-25T13:49:19.864Z,29.84
2022-07-25T13:51:47.602Z,29.96
2022-07-25T13:54:15.271Z,29.97
2022-07-25T13:56:43.174Z,28.67
2022-07-25T13:59:15.986Z,28.83
2022-07-25T14:01:47.373Z,28.76
2022-07-25T14:04:15.089Z,28.32
2022-07-25T14:06:44.331Z,27.78
2022-07-25T14:09:12.091Z,29.24
2022-07-25T14:11:39.824Z,29.17
2022-07-25T14:14:07.560Z,30.36
2022-07-25T14:16:35.263Z,31.64
2022-07-25T14:19:03.208Z,31.55
2022-07-25T14:21:31.120Z,32.17
2022-07-25T14:24:01.467Z,32.51
2022-07-25T14:26:30.940Z,34.07
2022-07-25T14:28:58.627Z,35.99
2022-07-25T14:31:27.037Z,37.04
2022-07-25T14:33:54.879Z,37.89
2022-07-25T14:36:22.610Z,39.01
2022-07-25T14:38:50.202Z,39.75
2022-07-25T14:41:19.194Z,39.32
2022-07-25T14:43:46.912Z,40.29
2022-07-25T14:46:15.506Z,40.17
2022-07-25T14:48:43.362Z,39.22
2022-07-25T14:51:11.055Z,36.89
2022-07-25T14:53:38.676Z,38.03
2022-07-25T14:56:07.275Z,36.15
2022-07-25T14:58:38.084Z,36.93
2022-07-25T15:01:06.367Z,37.44
2022-07-25T15:03:34.127Z,37.51
2022-07-25T15:06:01.975Z,38.03
2022-07-25T15:08:29.817Z,38.94
2022-07-25T15:10:57.462Z,41.05
2022-07-25T15:13:32.658Z,40.71
2022-07-25T15:16:03.600Z,42.01
2022-07-25T15:18:31.973Z,42.61
2022-07-25T15:20:59.678Z,43.25
2022-07-25T15:23:30.338Z,43.79
2022-07-25T15:26:01.798Z,41.99
2022-07-25T15:28:30.444Z,41.69
2022-07-25T15:30:58.148Z,40.39
2022-07-25T15:33:27.263Z,41.33
2022-07-25T15:35:55.800Z,41.57
2022-07-25T15:38:23.806Z,41.99
2022-07-25T15:40:51.683Z,42.97
2022-07-25T15:43:19.389Z,45.45
2022-07-25T15:45:47.414Z,45.64
2022-07-25T15:48:17.084Z,46.08
2022-07-25T15:50:48.051Z,46.14
2022-07-25T15:53:17.044Z,42.99
2022-07-25T15:55:44.864Z,39.33
2022-07-25T15:58:12.721Z,35.87
2022-07-25T16:00:41.501Z,33.81
2022-07-25T16:03:09.761Z,33.42
2022-07-25T16:05:39.085Z,33.92
2022-07-25T16:08:09.791Z,33.32
2022-07-25T16:10:38.075Z,33.48
2022-07-25T16:13:05.941Z,33.40
2022-07-25T16:15:33.638Z,34.64
2022-07-25T16:18:03.011Z,34.87
2022-07-25T16:20:32.134Z,33.54
2022-07-25T16:23:00.331Z,28.62
2022-07-25T16:25:30.440Z,24.15
2022-07-25T16:27:58.833Z,23.71
2022-07-25T16:30:27.684Z,20.68
2022-07-25T16:32:55.735Z,20.97
2022-07-25T16:35:24.084Z,19.34
2022-07-25T16:37:52.025Z,19.02
2022-07-25T16:40:19.667Z,19.37
2022-07-25T16:42:50.466Z,20.20
2022-07-25T16:45:18.089Z,20.84
2022-07-25T16:47:45.753Z,20.57
2022-07-25T16:50:13.417Z,23.28
2022-07-25T16:52:41.018Z,24.23
2022-07-25T16:55:09.416Z,25.44
2022-07-25T16:57:38.837Z,25.31
2022-07-25T17:00:10.152Z,24.26
2022-07-25T17:02:37.975Z,23.85
2022-07-25T17:05:06.428Z,24.50
2022-07-25T17:07:34.559Z,23.50
2022-07-25T17:10:03.776Z,25.61
2022-07-25T17:12:31.450Z,26.49
2022-07-25T17:14:59.089Z,27.23
2022-07-25T17:17:28.545Z,26.78
2022-07-25T17:19:59.848Z,27.20
2022-07-25T17:22:27.866Z,27.04
2022-07-25T17:24:55.492Z,26.88
2022-07-25T17:27:23.177Z,26.73
2022-07-25T17:29:50.979Z,26.74
2022-07-25T17:32:18.686Z,26.63
2022-07-25T17:34:47.638Z,26.61
2022-07-25T17:37:15.283Z,28.14
2022-07-25T17:39:42.959Z,28.36
2022-07-25T17:42:10.570Z,28.40
2022-07-25T17:44:38.286Z,28.02
2022-07-25T17:47:07.055Z,29.09
2022-07-25T17:49:34.666Z,29.39
2022-07-25T17:52:03.660Z,30.01
2022-07-25T17:54:31.386Z,30.37
2022-07-25T17:56:59.359Z,31.09
2022-07-25T17:59:27.253Z,32.04
2022-07-25T18:01:54.868Z,32.73
2022-07-25T18:04:23.149Z,32.40
2022-07-25T18:06:50.938Z,32.98
2022-07-25T18:09:20.257Z,32.82
2022-07-25T18:11:48.368Z,33.31
2022-07-25T18:14:15.964Z,33.72
2022-07-25T18:16:45.296Z,33.71
2022-07-25T18:19:13.291Z,34.15
2022-07-25T18:21:40.984Z,35.11
2022-07-25T18:24:09.315Z,35.41
2022-07-25T18:26:39.597Z,36.17
2022-07-25T18:29:08.048Z,36.43
2022-07-25T18:31:36.092Z,36.81
2022-07-25T18:34:04.748Z,36.67
2022-07-25T18:36:32.782Z,37.34
2022-07-25T18:39:00.457Z,36.88
2022-07-25T18:41:29.960Z,38.00
2022-07-25T18:44:01.033Z,37.44
2022-07-25T18:46:29.713Z,38.74
2022-07-25T18:48:58.818Z,37.58
2022-07-25T18:51:26.528Z,38.21
2022-07-25T18:53:54.206Z,38.70
2022-07-25T18:56:21.934Z,38.09
2022-07-25T18:58:49.680Z,37.91
2022-07-25T19:01:18.711Z,39.14
2022-07-25T19:03:46.435Z,38.67
2022-07-25T19:06:14.677Z,38.55
2022-07-25T19:08:43.751Z,40.02
2022-07-25T19:11:11.422Z,39.45
2022-07-25T19:13:49.527Z,39.38
2022-07-25T19:16:20.516Z,40.56
2022-07-25T19:18:48.986Z,39.63
2022-07-25T19:21:16.733Z,39.53
2022-07-25T19:23:50.120Z,39.48
2022-07-25T19:26:18.598Z,39.73
2022-07-25T19:28:46.402Z,39.95
2022-07-25T19:31:15.052Z,40.32
2022-07-25T19:33:45.628Z,40.12
2022-07-25T19:36:13.542Z,40.40
2022-07-25T19:38:41.153Z,40.79
2022-07-25T19:41:09.469Z,41.28
2022-07-25T19:43:37.085Z,41.17
2022-07-25T19:46:04.865Z,42.53
2022-07-25T19:48:32.553Z,41.89
2022-07-25T19:51:01.673Z,42.28
2022-07-25T19:53:29.321Z,42.82
2022-07-25T19:55:56.932Z,44.00
2022-07-25T19:58:24.677Z,42.72
2022-07-25T20:00:52.363Z,44.90
2022-07-25T20:03:23.288Z,45.43
2022-07-25T20:05:51.933Z,46.16
2022-07-25T20:08:21.388Z,45.45
2022-07-25T20:10:49.248Z,45.01
2022-07-25T20:13:17.556Z,45.18
2022-07-25T20:15:45.352Z,45.53
2022-07-25T20:18:19.117Z,46.39
2022-07-25T20:20:47.549Z,47.21
2022-07-25T20:23:15.787Z,47.17
2022-07-25T20:25:44.922Z,47.29
2022-07-25T20:28:13.060Z,47.52
2022-07-25T20:30:40.938Z,47.92
2022-07-25T20:33:09.829Z,48.53
2022-07-25T20:35:38.213Z,49.28
2022-07-25T20:38:14.600Z,48.63
2022-07-25T20:40:49.489Z,48.67
2022-07-25T20:43:19.781Z,49.30
2022-07-25T20:45:47.918Z,49.67
2022-07-25T20:48:16.009Z,50.61
2022-07-25T20:50:44.374Z,49.59
2022-07-25T20:53:12.449Z,51.11
2022-07-25T20:55:40.321Z,51.33
2022-07-25T20:58:08.158Z,51.62
2022-07-25T21:00:37.300Z,51.60
2022-07-25T21:03:05.381Z,51.97
2022-07-25T21:05:37.513Z,51.74
2022-07-25T21:08:05.287Z,52.51
2022-07-25T21:10:33.210Z,52.62
2022-07-25T21:13:00.865Z,52.80
2022-07-25T21:15:28.592Z,52.26
2022-07-25T21:17:58.026Z,52.39
2022-07-25T21:20:25.665Z,51.94
2022-07-25T21:22:55.489Z,52.55
2022-07-25T21:25:23.453Z,53.18
2022-07-25T21:27:51.193Z,52.84
2022-07-25T21:30:18.852Z,52.94
2022-07-25T21:32:46.544Z,52.43
2022-07-25T21:35:16.754Z,53.27
2022-07-25T21:37:44.777Z,52.83
2022-07-25T21:40:12.581Z,52.59
2022-07-25T21:42:40.293Z,53.42
2022-07-25T21:45:08.924Z,54.30
2022-07-25T21:47:36.533Z,53.54
2022-07-25T21:50:24.984Z,53.72
2022-07-25T21:52:54.807Z,53.62
2022-07-25T21:55:22.785Z,54.98
2022-07-25T21:57:51.201Z,54.50
2022-07-25T22:00:20.231Z,54.44
2022-07-25T22:02:48.213Z,55.51
2022-07-25T22:05:18.820Z,55.14
2022-07-25T22:07:48.098Z,54.74
2022-07-25T22:10:19.312Z,55.76
2022-07-25T22:12:47.041Z,55.56
2022-07-25T22:15:17.872Z,55.49
2022-07-25T22:17:49.655Z,54.51
2022-07-25T22:20:18.610Z,55.28
2022-07-25T22:22:46.603Z,54.58
2022-07-25T22:25:14.369Z,54.95
2022-07-25T22:27:43.917Z,54.67
2022-07-25T22:30:18.441Z,55.00
2022-07-25T22:32:46.798Z,55.41
2022-07-25T22:35:14.414Z,54.93
2022-07-25T22:37:42.047Z,55.56
2022-07-25T22:40:10.551Z,55.46
2022-07-25T22:42:38.163Z,55.82
2022-07-25T22:45:08.306Z,55.74
2022-07-25T22:47:35.867Z,55.56
2022-07-25T22:50:03.896Z,55.47
2022-07-25T22:52:31.619Z,55.49
2022-07-25T22:54:59.350Z,54.09
2022-07-25T22:57:27.117Z,53.79
2022-07-25T22:59:54.809Z,53.84
2022-07-25T23:02:23.757Z,51.92
2022-07-25T23:04:51.349Z,52.63
2022-07-25T23:07:19.083Z,53.06
2022-07-25T23:09:46.713Z,52.50
2022-07-25T23:12:14.357Z,52.59
2022-07-25T23:14:42.018Z,52.38
2022-07-25T23:17:19.904Z,51.80
2022-07-25T23:19:51.040Z,51.80
2022-07-25T23:22:19.668Z,51.82
2022-07-25T23:24:47.341Z,51.26
2022-07-25T23:27:15.084Z,51.02
2022-07-25T23:29:43.197Z,51.32
2022-07-25T23:32:10.920Z,52.04
2022-07-25T23:34:38.534Z,50.98
2022-07-25T23:37:07.798Z,51.49
2022-07-25T23:39:35.463Z,52.56
2022-07-25T23:42:03.688Z,51.97
2022-07-25T23:44:31.575Z,52.20
2022-07-25T23:46:59.739Z,52.03
2022-07-25T23:49:29.286Z,52.66
2022-07-25T23:51:57.417Z,52.65
2022-07-25T23:54:26.433Z,52.82
2022-07-25T23:56:54.613Z,52.45
2022-07-25T23:59:22.216Z,52.27
